KCNK

Blosser Municipal Airport

Concordia, Kansas, USA
METAR KCNK 250455Z AUTO 15011KT 10SM CLR 22/19 A2993 RMK AO2 SLP120 T02170189 TSNO
Observed Flight Rules
May-25 @ 04:55 UTC (31 minutes ago) Visual Flight Rules
Wind Visibility Clouds
150° at 11 knots 10 miles
  • Clear skies
Temperatures Readings
Current 22°C / 72°F
Dewpoint 19°C / 66°F
Humidity 83%
Altimeter 29.93" Hg
Pressure 1012 hPa
Elevation 447
METAR KCNK 250455Z AUTO 15011KT 10SM CLR 22/19 A2993 RMK AO2 SLP120 T02170189 TSNO
Observed Flight Rules
May-25 @ 04:55 UTC
(31 minutes ago)
VFR
Wind Visibility
150° at 11 knots 10 miles
Clouds
  • Clear skies
Temperature Dewpoint
22°C / 72°F 19°C / 66°F
Humidity Altimeter Pressure
83% 29.93" Hg 1012 hPa